createdAt,value
2018-02-23T00:02:17.821Z,45.74
2018-02-23T00:04:46.909Z,45.78
2018-02-23T00:07:16.017Z,45.68
2018-02-23T00:09:45.122Z,45.88
2018-02-23T00:12:14.210Z,45.87
2018-02-23T00:14:43.317Z,45.89
2018-02-23T00:17:12.402Z,45.84
2018-02-23T00:19:41.535Z,45.62
2018-02-23T00:22:10.680Z,45.71
2018-02-23T00:24:39.746Z,45.60
2018-02-23T00:27:08.908Z,45.59
2018-02-23T00:29:37.950Z,45.69
2018-02-23T00:32:07.053Z,45.80
2018-02-23T00:34:36.142Z,45.92
2018-02-23T00:37:05.239Z,45.89
2018-02-23T00:39:34.357Z,45.84
2018-02-23T00:42:03.473Z,46.00
2018-02-23T00:44:32.558Z,45.93
2018-02-23T00:47:01.666Z,45.83
2018-02-23T00:49:30.752Z,45.77
2018-02-23T00:51:59.857Z,45.87
2018-02-23T00:54:28.954Z,45.86
2018-02-23T00:56:59.129Z,45.99
2018-02-23T00:59:28.229Z,45.88
2018-02-23T01:01:57.317Z,45.83
2018-02-23T01:04:26.426Z,45.80
2018-02-23T01:06:55.521Z,45.91
2018-02-23T01:09:24.626Z,45.94
2018-02-23T01:11:53.715Z,46.03
2018-02-23T01:14:22.786Z,46.05
2018-02-23T01:16:51.887Z,46.00
2018-02-23T01:19:20.990Z,45.98
2018-02-23T01:21:50.081Z,46.39
2018-02-23T01:24:19.196Z,46.09
2018-02-23T01:26:48.324Z,46.12
2018-02-23T01:29:17.414Z,46.08
2018-02-23T01:31:46.498Z,46.10
2018-02-23T01:34:15.643Z,46.12
2018-02-23T01:36:45.489Z,45.97
2018-02-23T01:39:14.609Z,46.09
2018-02-23T01:41:43.697Z,46.12
2018-02-23T01:44:12.811Z,46.12
2018-02-23T01:46:41.886Z,45.95
2018-02-23T01:49:10.998Z,46.09
2018-02-23T01:51:41.071Z,46.07
2018-02-23T01:54:10.219Z,46.70
2018-02-23T01:56:39.297Z,46.45
2018-02-23T01:59:08.521Z,46.32
2018-02-23T02:01:37.610Z,46.35
2018-02-23T02:04:06.716Z,46.46
2018-02-23T02:06:35.809Z,46.71
2018-02-23T02:09:04.939Z,46.62
2018-02-23T02:11:34.925Z,46.58
2018-02-23T02:14:04.039Z,46.56
2018-02-23T02:16:33.934Z,46.49
2018-02-23T02:19:03.078Z,46.65
2018-02-23T02:21:32.174Z,46.57
2018-02-23T02:24:02.274Z,46.65
2018-02-23T02:26:32.125Z,46.90
2018-02-23T02:29:01.208Z,46.86
2018-02-23T02:31:30.318Z,46.97
2018-02-23T02:33:59.408Z,47.04
2018-02-23T02:36:28.513Z,47.13
2018-02-23T02:38:57.591Z,47.07
2018-02-23T02:41:26.694Z,47.08
2018-02-23T02:43:55.781Z,47.22
2018-02-23T02:46:24.887Z,47.18
2018-02-23T02:48:53.986Z,47.38
2018-02-23T02:51:23.114Z,47.31
2018-02-23T02:53:52.233Z,47.17
2018-02-23T02:56:22.097Z,47.39
2018-02-23T02:58:51.206Z,47.34
2018-02-23T03:01:20.288Z,47.58
2018-02-23T03:03:49.373Z,47.65
2018-02-23T03:06:18.483Z,47.74
2018-02-23T03:08:47.586Z,47.76
2018-02-23T03:11:16.674Z,47.92
2018-02-23T03:13:45.761Z,47.98
2018-02-23T03:16:16.008Z,47.99
2018-02-23T03:18:45.114Z,48.14
2018-02-23T03:21:14.207Z,47.86
2018-02-23T03:23:43.307Z,47.91
2018-02-23T03:26:12.427Z,48.09
2018-02-23T03:28:42.284Z,48.15
2018-02-23T03:31:11.408Z,48.26
2018-02-23T03:33:40.502Z,48.41
2018-02-23T03:36:09.599Z,48.71
2018-02-23T03:38:38.726Z,48.29
2018-02-23T03:41:08.598Z,48.34
2018-02-23T03:43:38.480Z,48.58
2018-02-23T03:46:07.573Z,48.53
2018-02-23T03:48:36.678Z,48.38
2018-02-23T03:51:05.762Z,48.46
2018-02-23T03:53:34.883Z,48.63
2018-02-23T03:56:03.958Z,48.49
2018-02-23T03:58:36.078Z,48.62
2018-02-23T04:01:05.166Z,48.56
2018-02-23T04:03:34.274Z,48.43
2018-02-23T04:06:03.378Z,48.71
2018-02-23T04:08:33.236Z,48.72
2018-02-23T04:11:02.357Z,48.72
2018-02-23T04:13:31.470Z,48.97
2018-02-23T04:16:02.074Z,48.95
2018-02-23T04:18:31.206Z,48.99
2018-02-23T04:21:00.311Z,48.94
2018-02-23T04:23:30.178Z,48.78
2018-02-23T04:25:59.285Z,48.98
2018-02-23T04:28:28.401Z,48.73
2018-02-23T04:30:57.515Z,48.77
2018-02-23T04:33:27.390Z,48.80
2018-02-23T04:35:56.501Z,48.73
2018-02-23T04:38:25.610Z,48.78
2018-02-23T04:40:55.503Z,48.87
2018-02-23T04:43:24.615Z,48.90
2018-02-23T04:45:53.752Z,48.73
2018-02-23T04:48:22.845Z,48.97
2018-02-23T04:50:52.720Z,49.17
2018-02-23T04:53:21.805Z,49.41
2018-02-23T04:55:50.916Z,49.46
2018-02-23T04:58:20.019Z,49.02
2018-02-23T05:00:49.112Z,49.20
2018-02-23T05:03:18.238Z,49.29
2018-02-23T05:05:47.333Z,48.87
2018-02-23T05:08:16.491Z,48.79
2018-02-23T05:10:45.583Z,49.07
2018-02-23T05:13:14.694Z,48.85
2018-02-23T05:15:43.782Z,49.02
2018-02-23T05:18:12.905Z,49.38
2018-02-23T05:20:42.767Z,49.30
2018-02-23T05:23:11.888Z,49.40
2018-02-23T05:25:40.994Z,49.74
2018-02-23T05:28:10.109Z,49.68
2018-02-23T05:30:40.124Z,49.48
2018-02-23T05:33:10.998Z,49.42
2018-02-23T05:35:40.199Z,49.30
2018-02-23T05:38:09.364Z,49.46
2018-02-23T05:40:39.294Z,49.46
2018-02-23T05:43:08.413Z,49.51
2018-02-23T05:45:37.632Z,49.35
2018-02-23T05:48:06.764Z,49.60
2018-02-23T05:50:36.667Z,49.85
2018-02-23T05:53:05.801Z,49.78
2018-02-23T05:55:34.906Z,49.81
2018-02-23T05:58:04.825Z,49.94
2018-02-23T06:00:33.938Z,50.10
2018-02-23T06:03:03.051Z,49.82
2018-02-23T06:05:32.226Z,50.15
2018-02-23T06:08:01.339Z,49.92
2018-02-23T06:10:30.453Z,49.81
2018-02-23T06:13:00.330Z,50.03
2018-02-23T06:15:34.966Z,50.07
2018-02-23T06:18:07.991Z,50.16
2018-02-23T06:20:37.887Z,50.32
2018-02-23T06:23:06.981Z,50.21
2018-02-23T06:25:36.106Z,50.12
2018-02-23T06:28:05.978Z,50.27
2018-02-23T06:30:35.084Z,50.24
2018-02-23T06:33:04.195Z,50.33
2018-02-23T06:35:33.313Z,50.82
2018-02-23T06:38:03.189Z,50.57
2018-02-23T06:40:32.309Z,50.49
2018-02-23T06:43:02.204Z,50.81
2018-02-23T06:45:31.292Z,50.59
2018-02-23T06:48:00.417Z,50.59
2018-02-23T06:50:30.276Z,50.48
2018-02-23T06:52:59.403Z,51.00
2018-02-23T06:55:28.506Z,50.80
2018-02-23T06:57:57.626Z,50.71
2018-02-23T07:00:27.495Z,50.72
2018-02-23T07:02:56.622Z,50.88
2018-02-23T07:05:25.732Z,50.86
2018-02-23T07:07:54.840Z,50.87
2018-02-23T07:10:24.706Z,50.84
2018-02-23T07:12:53.846Z,51.07
2018-02-23T07:15:23.704Z,50.70
2018-02-23T07:17:52.826Z,50.89
2018-02-23T07:20:21.929Z,50.70
2018-02-23T07:22:51.064Z,50.54
2018-02-23T07:25:20.153Z,50.59
2018-02-23T07:27:49.275Z,50.64
2018-02-23T07:30:18.374Z,50.70
2018-02-23T07:32:47.472Z,50.89
2018-02-23T07:35:16.588Z,50.69
2018-02-23T07:37:45.711Z,50.70
2018-02-23T07:40:14.810Z,50.80
2018-02-23T07:42:44.690Z,50.71
2018-02-23T07:45:14.369Z,50.82
2018-02-23T07:47:43.492Z,50.81
2018-02-23T07:50:12.586Z,50.72
2018-02-23T07:52:41.692Z,50.77
2018-02-23T07:55:10.830Z,50.95
2018-02-23T07:57:40.713Z,51.02
2018-02-23T08:00:09.831Z,50.66
2018-02-23T08:02:39.710Z,50.75
2018-02-23T08:05:08.807Z,50.82
2018-02-23T08:07:37.898Z,50.70
2018-02-23T08:10:07.013Z,50.62
2018-02-23T08:12:36.118Z,50.64
2018-02-23T08:15:05.255Z,50.46
2018-02-23T08:17:34.369Z,50.65
2018-02-23T08:20:03.490Z,50.64
2018-02-23T08:22:32.586Z,50.67
2018-02-23T08:25:01.699Z,50.70
2018-02-23T08:27:30.802Z,50.60
2018-02-23T08:30:00.683Z,50.50
2018-02-23T08:35:02.050Z,50.25
2018-02-23T08:37:31.145Z,50.37
2018-02-23T08:40:00.298Z,50.11
2018-02-23T08:42:30.118Z,49.93
2018-02-23T08:44:59.235Z,49.79
2018-02-23T08:47:28.330Z,49.98
2018-02-23T08:49:57.416Z,49.62
2018-02-23T08:52:26.603Z,49.16
2018-02-23T08:54:56.459Z,49.39
2018-02-23T08:57:25.557Z,49.50
2018-02-23T08:59:56.148Z,49.37
2018-02-23T09:02:25.277Z,49.88
2018-02-23T09:04:54.364Z,49.11
2018-02-23T09:07:23.488Z,48.88
2018-02-23T09:09:52.594Z,49.22
2018-02-23T09:12:21.732Z,49.23
2018-02-23T09:14:50.853Z,49.46
2018-02-23T09:17:19.953Z,49.32
2018-02-23T09:19:49.052Z,49.23
2018-02-23T09:22:18.165Z,49.23
2018-02-23T09:24:47.247Z,49.10
2018-02-23T09:27:16.380Z,49.13
2018-02-23T09:29:46.267Z,49.24
2018-02-23T09:45:45.355Z,48.91
2018-02-23T09:48:14.451Z,48.51
2018-02-23T09:50:43.592Z,48.64
2018-02-23T09:53:13.458Z,48.17
2018-02-23T09:55:42.558Z,48.13
2018-02-23T09:58:11.679Z,48.55
2018-02-23T10:00:41.529Z,48.36
2018-02-23T10:03:10.692Z,48.03
2018-02-23T10:05:40.589Z,48.01
2018-02-23T10:08:09.711Z,47.66
2018-02-23T10:10:39.579Z,48.69
2018-02-23T10:13:08.674Z,48.02
2018-02-23T10:15:38.563Z,48.20
2018-02-23T10:18:07.673Z,48.22
2018-02-23T10:20:36.761Z,47.89
2018-02-23T10:23:05.903Z,47.65
2018-02-23T10:25:34.966Z,47.63
2018-02-23T10:28:04.055Z,47.72
2018-02-23T10:30:33.166Z,47.72
2018-02-23T10:33:02.268Z,47.80
2018-02-23T10:35:31.366Z,47.56
2018-02-23T10:38:00.466Z,47.52
2018-02-23T10:40:29.587Z,47.50
2018-02-23T10:42:59.460Z,47.59
2018-02-23T10:45:28.608Z,47.46
2018-02-23T10:47:57.706Z,47.28
2018-02-23T10:50:26.843Z,47.30
2018-02-23T10:52:55.926Z,47.46
2018-02-23T10:55:25.031Z,47.48
2018-02-23T10:57:54.191Z,47.35
2018-02-23T11:00:24.037Z,47.34
2018-02-23T11:02:53.163Z,47.42
2018-02-23T11:05:22.269Z,47.51
2018-02-23T11:07:51.381Z,47.89
2018-02-23T11:10:21.243Z,46.79
2018-02-23T11:12:50.349Z,46.86
2018-02-23T11:15:19.452Z,47.39
2018-02-23T11:17:48.556Z,47.62
2018-02-23T11:20:17.641Z,46.97
2018-02-23T11:22:46.750Z,46.68
2018-02-23T11:25:15.865Z,46.71
2018-02-23T11:27:44.959Z,46.75
2018-02-23T11:30:14.822Z,46.71
2018-02-23T11:32:43.960Z,46.94
2018-02-23T11:35:13.067Z,46.86
2018-02-23T11:37:42.151Z,46.86
2018-02-23T11:40:11.257Z,46.56
2018-02-23T11:42:41.122Z,46.53
2018-02-23T11:45:10.211Z,46.42
2018-02-23T11:47:39.326Z,46.28
2018-02-23T11:50:08.422Z,46.27
2018-02-23T11:52:37.523Z,46.59
2018-02-23T11:55:06.623Z,46.90
2018-02-23T11:57:41.170Z,46.36
2018-02-23T12:00:10.287Z,45.72
2018-02-23T12:02:40.145Z,46.09
2018-02-23T12:05:09.250Z,45.88
2018-02-23T12:07:38.370Z,45.72
2018-02-23T12:10:07.487Z,45.96
2018-02-23T12:12:37.366Z,45.97
2018-02-23T12:15:06.472Z,45.97
2018-02-23T12:17:35.585Z,45.98
2018-02-23T12:20:04.690Z,46.65
2018-02-23T12:22:33.802Z,45.58
2018-02-23T12:25:02.919Z,45.91
2018-02-23T12:27:32.019Z,45.70
2018-02-23T12:30:01.140Z,45.70
2018-02-23T12:32:30.259Z,44.81
2018-02-23T12:35:00.136Z,44.54
2018-02-23T12:37:29.244Z,44.43
2018-02-23T12:39:58.355Z,44.74
2018-02-23T12:42:27.467Z,44.32
2018-02-23T12:44:56.598Z,44.09
2018-02-23T12:47:25.698Z,44.36
2018-02-23T12:49:55.536Z,44.56
2018-02-23T12:52:24.635Z,44.44
2018-02-23T12:54:53.766Z,44.27
2018-02-23T12:57:23.653Z,44.25
2018-02-23T12:59:52.759Z,44.12
2018-02-23T13:02:21.884Z,44.26
2018-02-23T13:04:51.007Z,43.93
2018-02-23T13:07:20.092Z,43.86
2018-02-23T13:09:49.194Z,43.36
2018-02-23T13:12:18.316Z,43.43
2018-02-23T13:14:52.828Z,42.82
2018-02-23T13:17:21.951Z,42.82
2018-02-23T13:19:51.063Z,42.80
2018-02-23T13:22:20.952Z,42.80
2018-02-23T13:24:50.071Z,43.34
2018-02-23T13:27:20.949Z,43.09
2018-02-23T13:29:50.090Z,42.84
2018-02-23T13:32:19.955Z,42.92
2018-02-23T13:34:49.057Z,42.88
2018-02-23T13:37:18.158Z,42.53
2018-02-23T13:39:52.669Z,42.76
2018-02-23T13:42:23.595Z,42.74
2018-02-23T13:44:52.716Z,42.46
2018-02-23T13:47:21.843Z,42.46
2018-02-23T13:49:50.967Z,42.46
2018-02-23T13:52:20.063Z,42.59
2018-02-23T13:54:53.618Z,42.56
2018-02-23T13:57:22.723Z,42.15
2018-02-23T13:59:51.836Z,41.82
2018-02-23T14:02:20.943Z,41.78
2018-02-23T14:04:50.052Z,41.73
2018-02-23T14:07:39.724Z,41.98
2018-02-23T14:10:09.620Z,42.23
2018-02-23T14:12:38.728Z,42.32
2018-02-23T14:15:07.846Z,41.87
2018-02-23T14:17:37.734Z,41.82
2018-02-23T14:20:08.358Z,41.70
2018-02-23T14:22:37.484Z,41.42
2018-02-23T14:25:07.390Z,41.46
2018-02-23T14:27:37.264Z,41.89
2018-02-23T14:30:06.372Z,41.23
2018-02-23T14:32:35.489Z,40.34
2018-02-23T14:35:04.601Z,40.65
2018-02-23T14:37:34.481Z,39.73
2018-02-23T14:40:03.621Z,39.36
2018-02-23T14:42:32.732Z,39.14
2018-02-23T14:45:01.855Z,38.63
2018-02-23T14:47:30.950Z,35.84
2018-02-23T14:50:17.701Z,32.20
2018-02-23T14:52:47.570Z,29.00
2018-02-23T14:55:16.682Z,28.22
2018-02-23T14:57:45.806Z,27.48
2018-02-23T15:00:14.923Z,28.87
2018-02-23T15:02:44.808Z,28.50
2018-02-23T15:05:13.925Z,26.94
2018-02-23T15:07:43.036Z,27.23
2018-02-23T15:10:12.150Z,26.67
2018-02-23T15:12:41.301Z,29.07
2018-02-23T15:15:11.186Z,31.56
2018-02-23T15:17:41.129Z,34.16
2018-02-23T15:20:10.182Z,36.03
2018-02-23T15:22:39.292Z,37.10
2018-02-23T15:25:08.426Z,37.79
2018-02-23T15:27:37.540Z,38.66
2018-02-23T15:30:06.662Z,38.68
2018-02-23T15:32:40.977Z,39.29
2018-02-23T15:35:10.078Z,39.66
2018-02-23T15:37:39.214Z,40.15
2018-02-23T15:40:08.313Z,40.37
2018-02-23T15:42:37.405Z,40.39
2018-02-23T15:45:08.048Z,40.75
2018-02-23T15:47:37.161Z,41.21
2018-02-23T15:50:12.493Z,41.37
2018-02-23T15:52:42.364Z,41.71
2018-02-23T15:55:11.493Z,41.54
2018-02-23T15:57:44.635Z,41.64
2018-02-23T16:00:13.785Z,41.64
2018-02-23T16:02:42.920Z,41.77
2018-02-23T16:05:12.011Z,41.85
2018-02-23T16:07:41.118Z,41.92
2018-02-23T16:10:10.262Z,41.88
2018-02-23T16:12:39.380Z,41.88
2018-02-23T16:15:09.262Z,42.16
2018-02-23T16:17:38.367Z,42.06
2018-02-23T16:20:07.495Z,42.07
2018-02-23T16:22:36.610Z,42.05
2018-02-23T16:25:05.747Z,42.04
2018-02-23T16:27:34.838Z,42.17
2018-02-23T16:30:03.942Z,41.97
2018-02-23T16:32:33.070Z,42.12
2018-02-23T16:35:02.197Z,42.09
2018-02-23T16:37:31.328Z,42.33
2018-02-23T16:40:00.454Z,42.43
2018-02-23T16:42:30.327Z,42.53
2018-02-23T16:45:00.196Z,42.75
2018-02-23T16:47:29.351Z,42.85
2018-02-23T16:49:58.455Z,42.94
2018-02-23T16:52:27.567Z,42.53
2018-02-23T16:54:57.462Z,42.74
2018-02-23T16:57:26.581Z,42.94
2018-02-23T16:59:56.456Z,43.11
2018-02-23T17:02:25.553Z,42.99
2018-02-23T17:04:55.611Z,43.17
2018-02-23T17:07:25.503Z,43.08
2018-02-23T17:09:54.628Z,43.17
2018-02-23T17:12:24.538Z,43.36
2018-02-23T17:14:54.431Z,43.25
2018-02-23T17:17:23.532Z,43.30
2018-02-23T17:19:52.637Z,43.36
2018-02-23T17:22:22.502Z,43.36
2018-02-23T17:24:51.615Z,43.32
2018-02-23T17:27:20.736Z,43.32
2018-02-23T17:29:49.870Z,43.37
2018-02-23T17:32:19.791Z,43.43
2018-02-23T17:34:48.935Z,43.35
2018-02-23T17:37:18.861Z,43.16
2018-02-23T17:39:48.732Z,43.30
2018-02-23T17:42:17.860Z,43.38
2018-02-23T17:44:46.993Z,43.43
2018-02-23T17:47:16.867Z,43.30
2018-02-23T17:49:45.971Z,43.31
2018-02-23T17:52:15.124Z,43.17
2018-02-23T17:54:44.220Z,43.36
2018-02-23T17:57:13.349Z,43.36
2018-02-23T17:59:43.950Z,43.37
2018-02-23T18:02:13.075Z,43.58
2018-02-23T18:04:42.197Z,43.53
2018-02-23T18:07:11.309Z,43.46
2018-02-23T18:09:40.434Z,43.73
2018-02-23T18:12:09.558Z,43.86
2018-02-23T18:14:38.693Z,44.08
2018-02-23T18:17:08.575Z,44.68
2018-02-23T18:19:37.695Z,44.54
2018-02-23T18:22:07.581Z,44.73
2018-02-23T18:24:36.730Z,44.81
2018-02-23T18:27:05.831Z,44.39
2018-02-23T18:29:34.923Z,44.37
2018-02-23T18:32:04.053Z,44.70
2018-02-23T18:34:33.151Z,44.63
2018-02-23T18:37:02.288Z,44.71
2018-02-23T18:39:32.189Z,44.68
2018-02-23T18:42:01.363Z,44.72
2018-02-23T18:44:30.422Z,44.95
2018-02-23T18:46:59.535Z,44.66
2018-02-23T18:49:28.619Z,44.73
2018-02-23T18:51:57.728Z,44.81
2018-02-23T18:54:27.615Z,44.83
2018-02-23T18:56:56.912Z,44.83
2018-02-23T18:59:26.038Z,44.83
2018-02-23T19:01:55.819Z,44.76
2018-02-23T19:04:24.919Z,44.81
2018-02-23T19:06:54.034Z,44.81
2018-02-23T19:09:23.918Z,45.27
2018-02-23T19:11:53.062Z,45.19
2018-02-23T19:14:22.187Z,44.82
2018-02-23T19:16:51.294Z,44.94
2018-02-23T19:19:20.427Z,44.74
2018-02-23T19:21:49.542Z,44.81
2018-02-23T19:24:18.699Z,44.57
2018-02-23T19:26:48.575Z,44.69
2018-02-23T19:29:19.201Z,44.60
2018-02-23T19:31:48.325Z,44.82
2018-02-23T19:34:18.218Z,44.69
2018-02-23T19:36:47.344Z,44.59
2018-02-23T19:39:16.477Z,44.79
2018-02-23T19:41:45.639Z,44.95
2018-02-23T19:44:14.742Z,44.92
2018-02-23T19:46:44.632Z,44.69
2018-02-23T19:49:14.997Z,44.91
2018-02-23T19:51:44.855Z,44.69
2018-02-23T19:54:14.001Z,44.73
2018-02-23T19:56:43.896Z,44.78
2018-02-23T19:59:13.000Z,44.82
2018-02-23T20:01:42.871Z,45.14
2018-02-23T20:04:12.748Z,45.18
2018-02-23T20:06:41.934Z,45.21
2018-02-23T20:09:11.805Z,45.28
2018-02-23T20:11:40.936Z,45.21
2018-02-23T20:14:10.831Z,45.19
2018-02-23T20:16:39.931Z,45.06
2018-02-23T20:19:09.070Z,45.15
2018-02-23T20:21:38.190Z,45.26
2018-02-23T20:24:07.329Z,45.32
2018-02-23T20:26:36.463Z,45.62
2018-02-23T20:29:05.584Z,45.52
2018-02-23T20:31:34.705Z,45.70
2018-02-23T20:34:03.815Z,45.79
2018-02-23T20:49:20.937Z,46.29
2018-02-23T20:51:51.550Z,46.23
2018-02-23T20:54:21.446Z,46.38
2018-02-23T20:56:50.574Z,46.73
2018-02-23T20:59:20.467Z,46.66
2018-02-23T21:01:50.371Z,46.64
2018-02-23T21:04:19.493Z,46.66
2018-02-23T21:06:49.348Z,46.63
2018-02-23T21:09:18.796Z,46.83
2018-02-23T21:11:47.898Z,46.73
2018-02-23T21:14:17.792Z,46.72
2018-02-23T21:16:46.919Z,46.82
2018-02-23T21:19:17.610Z,46.78
2018-02-23T21:21:46.728Z,46.74
2018-02-23T21:24:15.869Z,46.83
2018-02-23T21:26:44.968Z,46.97
2018-02-23T21:29:14.092Z,46.92
2018-02-23T21:31:43.216Z,46.95
2018-02-23T21:34:12.359Z,46.96
2018-02-23T21:36:41.521Z,47.11
2018-02-23T21:39:10.676Z,47.19
2018-02-23T21:41:53.681Z,47.05
2018-02-23T21:44:22.804Z,47.20
2018-02-23T21:46:53.123Z,47.24
2018-02-23T21:49:22.222Z,47.34
2018-02-23T21:51:51.317Z,47.29
2018-02-23T21:54:20.414Z,47.30
2018-02-23T21:56:49.540Z,47.27
2018-02-23T21:59:19.452Z,47.60
2018-02-23T22:01:48.543Z,47.40
2018-02-23T22:04:17.658Z,47.43
2018-02-23T22:06:47.510Z,47.42
2018-02-23T22:09:16.634Z,47.49
2018-02-23T22:11:45.740Z,47.67
2018-02-23T22:14:14.866Z,47.57
2018-02-23T22:16:44.740Z,47.59
2018-02-23T22:19:13.875Z,47.57
2018-02-23T22:21:43.755Z,47.70
2018-02-23T22:24:12.858Z,47.86
2018-02-23T22:26:41.976Z,47.65
2018-02-23T22:29:11.103Z,47.84
2018-02-23T22:31:40.193Z,47.74
2018-02-23T22:34:09.327Z,47.70
2018-02-23T22:36:38.421Z,47.64
2018-02-23T22:39:07.527Z,47.89
2018-02-23T22:41:36.636Z,47.79
2018-02-23T22:44:06.518Z,47.98
2018-02-23T22:46:35.616Z,47.73
2018-02-23T22:49:04.719Z,47.84
2018-02-23T22:51:33.858Z,48.05
2018-02-23T22:54:03.738Z,48.07
2018-02-23T22:56:32.845Z,48.11
2018-02-23T22:59:01.967Z,48.31
2018-02-23T23:01:31.844Z,48.44
2018-02-23T23:04:00.968Z,48.37
2018-02-23T23:06:30.833Z,48.42
2018-02-23T23:08:59.947Z,48.52
2018-02-23T23:11:29.068Z,48.45
2018-02-23T23:13:58.177Z,48.37
2018-02-23T23:16:28.050Z,48.44
2018-02-23T23:18:57.166Z,48.33
2018-02-23T23:21:26.291Z,48.52
2018-02-23T23:23:56.134Z,48.51
2018-02-23T23:26:25.359Z,48.51
2018-02-23T23:28:55.964Z,48.42
2018-02-23T23:31:25.062Z,48.52
2018-02-23T23:33:54.158Z,48.73
2018-02-23T23:36:23.264Z,48.47
2018-02-23T23:38:52.471Z,48.72
2018-02-23T23:41:21.591Z,48.71
2018-02-23T23:43:50.682Z,48.75
2018-02-23T23:46:19.795Z,48.80
2018-02-23T23:48:49.663Z,48.89
2018-02-23T23:51:18.784Z,49.10
2018-02-23T23:53:47.871Z,48.77
2018-02-23T23:56:16.962Z,48.83
2018-02-23T23:58:46.079Z,48.96
